sensor_id;sensor_type;location;lat;lon;timestamp;pressure;altitude;pressure_sealevel;temperature
48894;BMP280;34710;35.798;139.446;2023-05-21T00:01:21;99994.56;;;25.30
48894;BMP280;34710;35.798;139.446;2023-05-21T00:03:46;99995.35;;;24.79
48894;BMP280;34710;35.798;139.446;2023-05-21T00:06:12;99998.01;;;25.32
48894;BMP280;34710;35.798;139.446;2023-05-21T00:08:36;99995.42;;;24.65
48894;BMP280;34710;35.798;139.446;2023-05-21T00:11:01;99998.66;;;23.47
48894;BMP280;34710;35.798;139.446;2023-05-21T00:13:27;99993.67;;;24.39
48894;BMP280;34710;35.798;139.446;2023-05-21T00:15:52;99996.57;;;24.44
48894;BMP280;34710;35.798;139.446;2023-05-21T00:18:17;99987.35;;;26.31
48894;BMP280;34710;35.798;139.446;2023-05-21T00:20:43;99988.92;;;26.64
48894;BMP280;34710;35.798;139.446;2023-05-21T00:23:08;99994.16;;;23.77
48894;BMP280;34710;35.798;139.446;2023-05-21T00:25:33;99993.42;;;24.15
48894;BMP280;34710;35.798;139.446;2023-05-21T00:27:58;99985.09;;;25.29
48894;BMP280;34710;35.798;139.446;2023-05-21T00:30:23;99982.16;;;25.55
48894;BMP280;34710;35.798;139.446;2023-05-21T00:32:48;99985.13;;;23.28
48894;BMP280;34710;35.798;139.446;2023-05-21T00:35:14;99970.40;;;26.01
48894;BMP280;34710;35.798;139.446;2023-05-21T00:37:38;99972.32;;;25.45
48894;BMP280;34710;35.798;139.446;2023-05-21T00:40:04;99973.21;;;25.71
48894;BMP280;34710;35.798;139.446;2023-05-21T00:42:28;99972.19;;;26.65
48894;BMP280;34710;35.798;139.446;2023-05-21T00:44:53;99966.31;;;26.64
48894;BMP280;34710;35.798;139.446;2023-05-21T00:47:18;99962.82;;;26.12
48894;BMP280;34710;35.798;139.446;2023-05-21T00:49:43;99966.97;;;23.29
48894;BMP280;34710;35.798;139.446;2023-05-21T00:52:08;99962.71;;;24.28
48894;BMP280;34710;35.798;139.446;2023-05-21T00:54:33;99959.18;;;25.62
48894;BMP280;34710;35.798;139.446;2023-05-21T00:57:00;99960.46;;;25.61
48894;BMP280;34710;35.798;139.446;2023-05-21T00:59:25;99960.18;;;26.53
48894;BMP280;34710;35.798;139.446;2023-05-21T01:01:50;99960.21;;;27.52
48894;BMP280;34710;35.798;139.446;2023-05-21T01:04:14;99951.64;;;26.28
48894;BMP280;34710;35.798;139.446;2023-05-21T01:06:39;99948.86;;;25.63
48894;BMP280;34710;35.798;139.446;2023-05-21T01:09:05;99945.22;;;26.58
48894;BMP280;34710;35.798;139.446;2023-05-21T01:11:37;99939.09;;;27.92
48894;BMP280;34710;35.798;139.446;2023-05-21T01:13:54;99930.99;;;27.85
48894;BMP280;34710;35.798;139.446;2023-05-21T01:16:20;99936.05;;;28.22
48894;BMP280;34710;35.798;139.446;2023-05-21T01:18:44;99930.73;;;28.24
48894;BMP280;34710;35.798;139.446;2023-05-21T01:21:09;99927.87;;;26.04
48894;BMP280;34710;35.798;139.446;2023-05-21T01:23:35;99929.04;;;26.64
48894;BMP280;34710;35.798;139.446;2023-05-21T01:26:00;99932.64;;;26.67
48894;BMP280;34710;35.798;139.446;2023-05-21T01:28:25;99938.64;;;27.22
48894;BMP280;34710;35.798;139.446;2023-05-21T01:30:50;99944.14;;;26.86
48894;BMP280;34710;35.798;139.446;2023-05-21T01:33:18;99945.61;;;26.90
48894;BMP280;34710;35.798;139.446;2023-05-21T01:35:43;99943.28;;;26.84
48894;BMP280;34710;35.798;139.446;2023-05-21T01:38:14;99940.26;;;26.80
48894;BMP280;34710;35.798;139.446;2023-05-21T01:40:37;99937.43;;;26.62
48894;BMP280;34710;35.798;139.446;2023-05-21T01:42:55;99936.18;;;26.50
48894;BMP280;34710;35.798;139.446;2023-05-21T01:45:22;99939.31;;;27.49
48894;BMP280;34710;35.798;139.446;2023-05-21T01:47:48;99930.03;;;27.67
48894;BMP280;34710;35.798;139.446;2023-05-21T01:50:11;99923.19;;;28.11
48894;BMP280;34710;35.798;139.446;2023-05-21T01:52:37;99921.68;;;28.31
48894;BMP280;34710;35.798;139.446;2023-05-21T01:55:01;99913.67;;;27.97
48894;BMP280;34710;35.798;139.446;2023-05-21T01:57:26;99917.19;;;27.70
48894;BMP280;34710;35.798;139.446;2023-05-21T01:59:52;99911.47;;;28.45
48894;BMP280;34710;35.798;139.446;2023-05-21T02:02:17;99901.43;;;27.79
48894;BMP280;34710;35.798;139.446;2023-05-21T02:04:42;99900.06;;;28.48
48894;BMP280;34710;35.798;139.446;2023-05-21T02:07:07;99896.57;;;28.52
48894;BMP280;34710;35.798;139.446;2023-05-21T02:09:32;99896.59;;;28.76
48894;BMP280;34710;35.798;139.446;2023-05-21T02:11:57;99897.94;;;28.09
48894;BMP280;34710;35.798;139.446;2023-05-21T02:14:22;99895.04;;;26.26
48894;BMP280;34710;35.798;139.446;2023-05-21T02:16:47;99895.29;;;25.58
48894;BMP280;34710;35.798;139.446;2023-05-21T02:19:12;99896.56;;;27.19
48894;BMP280;34710;35.798;139.446;2023-05-21T02:21:37;99892.96;;;28.11
48894;BMP280;34710;35.798;139.446;2023-05-21T02:24:03;99893.02;;;27.71
48894;BMP280;34710;35.798;139.446;2023-05-21T02:26:27;99890.06;;;28.88
48894;BMP280;34710;35.798;139.446;2023-05-21T02:28:53;99888.90;;;29.27
48894;BMP280;34710;35.798;139.446;2023-05-21T02:31:18;99883.49;;;29.61
48894;BMP280;34710;35.798;139.446;2023-05-21T02:33:43;99880.92;;;27.75
48894;BMP280;34710;35.798;139.446;2023-05-21T02:36:08;99884.18;;;27.88
48894;BMP280;34710;35.798;139.446;2023-05-21T02:38:32;99881.43;;;26.04
48894;BMP280;34710;35.798;139.446;2023-05-21T02:40:58;99876.36;;;26.05
48894;BMP280;34710;35.798;139.446;2023-05-21T02:43:23;99874.17;;;26.99
48894;BMP280;34710;35.798;139.446;2023-05-21T02:45:48;99869.14;;;27.75
48894;BMP280;34710;35.798;139.446;2023-05-21T02:48:13;99865.70;;;27.27
48894;BMP280;34710;35.798;139.446;2023-05-21T02:50:38;99855.86;;;28.32
48894;BMP280;34710;35.798;139.446;2023-05-21T02:53:03;99850.61;;;27.78
48894;BMP280;34710;35.798;139.446;2023-05-21T02:55:29;99845.09;;;28.01
48894;BMP280;34710;35.798;139.446;2023-05-21T02:57:54;99836.25;;;29.51
48894;BMP280;34710;35.798;139.446;2023-05-21T03:00:19;99837.82;;;28.92
48894;BMP280;34710;35.798;139.446;2023-05-21T03:02:44;99839.92;;;27.35
48894;BMP280;34710;35.798;139.446;2023-05-21T03:05:09;99830.87;;;27.04
48894;BMP280;34710;35.798;139.446;2023-05-21T03:07:35;99823.75;;;27.75
48894;BMP280;34710;35.798;139.446;2023-05-21T03:09:59;99819.88;;;27.81
48894;BMP280;34710;35.798;139.446;2023-05-21T03:12:25;99816.80;;;28.45
48894;BMP280;34710;35.798;139.446;2023-05-21T03:14:49;99818.60;;;27.03
48894;BMP280;34710;35.798;139.446;2023-05-21T03:17:15;99815.65;;;27.37
48894;BMP280;34710;35.798;139.446;2023-05-21T03:19:42;99811.34;;;27.25
48894;BMP280;34710;35.798;139.446;2023-05-21T03:22:04;99805.65;;;27.18
48894;BMP280;34710;35.798;139.446;2023-05-21T03:24:30;99796.27;;;27.26
48894;BMP280;34710;35.798;139.446;2023-05-21T03:26:55;99796.51;;;27.21
48894;BMP280;34710;35.798;139.446;2023-05-21T03:29:20;99796.55;;;26.28
48894;BMP280;34710;35.798;139.446;2023-05-21T03:31:45;99800.16;;;27.25
48894;BMP280;34710;35.798;139.446;2023-05-21T03:34:11;99794.81;;;28.28
48894;BMP280;34710;35.798;139.446;2023-05-21T03:36:35;99793.48;;;28.23
48894;BMP280;34710;35.798;139.446;2023-05-21T03:39:00;99788.81;;;28.49
48894;BMP280;34710;35.798;139.446;2023-05-21T03:41:25;99778.98;;;28.56
48894;BMP280;34710;35.798;139.446;2023-05-21T03:43:50;99770.54;;;28.36
48894;BMP280;34710;35.798;139.446;2023-05-21T03:46:16;99772.30;;;27.80
48894;BMP280;34710;35.798;139.446;2023-05-21T03:48:40;99764.36;;;28.93
48894;BMP280;34710;35.798;139.446;2023-05-21T03:51:06;99762.18;;;27.59
48894;BMP280;34710;35.798;139.446;2023-05-21T03:53:32;99752.77;;;29.29
48894;BMP280;34710;35.798;139.446;2023-05-21T03:55:56;99755.65;;;27.40
48894;BMP280;34710;35.798;139.446;2023-05-21T03:58:21;99756.29;;;26.62
48894;BMP280;34710;35.798;139.446;2023-05-21T04:00:46;99752.47;;;27.34
48894;BMP280;34710;35.798;139.446;2023-05-21T04:03:11;99752.45;;;27.72
48894;BMP280;34710;35.798;139.446;2023-05-21T04:05:36;99750.50;;;27.38
48894;BMP280;34710;35.798;139.446;2023-05-21T04:08:01;99743.43;;;27.91
48894;BMP280;34710;35.798;139.446;2023-05-21T04:10:27;99742.83;;;29.14
48894;BMP280;34710;35.798;139.446;2023-05-21T04:12:51;99738.98;;;29.78
48894;BMP280;34710;35.798;139.446;2023-05-21T04:15:16;99738.27;;;29.48
48894;BMP280;34710;35.798;139.446;2023-05-21T04:17:41;99735.87;;;28.91
48894;BMP280;34710;35.798;139.446;2023-05-21T04:20:07;99744.55;;;29.01
48894;BMP280;34710;35.798;139.446;2023-05-21T04:22:31;99729.30;;;29.33
48894;BMP280;34710;35.798;139.446;2023-05-21T04:24:56;99731.03;;;29.20
48894;BMP280;34710;35.798;139.446;2023-05-21T04:27:21;99728.79;;;30.69
48894;BMP280;34710;35.798;139.446;2023-05-21T04:29:46;99727.93;;;30.99
48894;BMP280;34710;35.798;139.446;2023-05-21T04:32:12;99721.23;;;30.44
48894;BMP280;34710;35.798;139.446;2023-05-21T04:34:38;99726.16;;;27.70
48894;BMP280;34710;35.798;139.446;2023-05-21T04:37:03;99726.73;;;28.26
48894;BMP280;34710;35.798;139.446;2023-05-21T04:39:29;99729.11;;;26.43
48894;BMP280;34710;35.798;139.446;2023-05-21T04:41:53;99722.13;;;27.00
48894;BMP280;34710;35.798;139.446;2023-05-21T04:44:18;99722.81;;;26.56
48894;BMP280;34710;35.798;139.446;2023-05-21T04:46:45;99725.05;;;27.06
48894;BMP280;34710;35.798;139.446;2023-05-21T04:49:10;99716.45;;;26.48
48894;BMP280;34710;35.798;139.446;2023-05-21T04:51:35;99714.60;;;26.69
48894;BMP280;34710;35.798;139.446;2023-05-21T04:54:00;99716.90;;;26.64
48894;BMP280;34710;35.798;139.446;2023-05-21T04:56:26;99710.44;;;27.51
48894;BMP280;34710;35.798;139.446;2023-05-21T04:58:51;99712.86;;;27.00
48894;BMP280;34710;35.798;139.446;2023-05-21T05:01:16;99708.82;;;27.38
48894;BMP280;34710;35.798;139.446;2023-05-21T05:03:42;99710.68;;;26.56
48894;BMP280;34710;35.798;139.446;2023-05-21T05:06:07;99704.80;;;28.11
48894;BMP280;34710;35.798;139.446;2023-05-21T05:08:32;99701.50;;;27.73
48894;BMP280;34710;35.798;139.446;2023-05-21T05:10:57;99698.72;;;27.94
48894;BMP280;34710;35.798;139.446;2023-05-21T05:13:22;99698.79;;;27.65
48894;BMP280;34710;35.798;139.446;2023-05-21T05:15:49;99689.43;;;28.71
48894;BMP280;34710;35.798;139.446;2023-05-21T05:18:14;99683.75;;;27.72
48894;BMP280;34710;35.798;139.446;2023-05-21T05:20:38;99680.85;;;28.21
48894;BMP280;34710;35.798;139.446;2023-05-21T05:23:04;99675.11;;;27.87
48894;BMP280;34710;35.798;139.446;2023-05-21T05:25:29;99666.38;;;28.23
48894;BMP280;34710;35.798;139.446;2023-05-21T05:27:54;99667.08;;;27.49
48894;BMP280;34710;35.798;139.446;2023-05-21T05:30:19;99658.98;;;28.00
48894;BMP280;34710;35.798;139.446;2023-05-21T05:32:44;99665.52;;;27.29
48894;BMP280;34710;35.798;139.446;2023-05-21T05:35:10;99664.90;;;27.45
48894;BMP280;34710;35.798;139.446;2023-05-21T05:37:35;99654.66;;;27.06
48894;BMP280;34710;35.798;139.446;2023-05-21T05:40:00;99647.10;;;27.41
48894;BMP280;34710;35.798;139.446;2023-05-21T05:42:24;99647.85;;;26.12
48894;BMP280;34710;35.798;139.446;2023-05-21T05:44:50;99639.38;;;26.71
48894;BMP280;34710;35.798;139.446;2023-05-21T05:47:16;99637.32;;;27.10
48894;BMP280;34710;35.798;139.446;2023-05-21T05:49:41;99642.07;;;26.86
48894;BMP280;34710;35.798;139.446;2023-05-21T05:52:06;99643.32;;;26.28
48894;BMP280;34710;35.798;139.446;2023-05-21T05:54:32;99643.52;;;26.92
48894;BMP280;34710;35.798;139.446;2023-05-21T05:56:56;99630.67;;;28.10
48894;BMP280;34710;35.798;139.446;2023-05-21T05:59:21;99627.47;;;27.86
48894;BMP280;34710;35.798;139.446;2023-05-21T06:01:46;99621.36;;;27.30
48894;BMP280;34710;35.798;139.446;2023-05-21T06:04:12;99618.18;;;27.85
48894;BMP280;34710;35.798;139.446;2023-05-21T06:06:37;99610.90;;;28.29
48894;BMP280;34710;35.798;139.446;2023-05-21T06:09:03;99609.62;;;27.92
48894;BMP280;34710;35.798;139.446;2023-05-21T06:11:28;99605.93;;;27.53
48894;BMP280;34710;35.798;139.446;2023-05-21T06:13:53;99611.11;;;26.93
48894;BMP280;34710;35.798;139.446;2023-05-21T06:16:19;99608.16;;;26.88
48894;BMP280;34710;35.798;139.446;2023-05-21T06:18:45;99601.74;;;27.21
48894;BMP280;34710;35.798;139.446;2023-05-21T06:21:10;99600.83;;;26.18
48894;BMP280;34710;35.798;139.446;2023-05-21T06:23:34;99594.53;;;26.04
48894;BMP280;34710;35.798;139.446;2023-05-21T06:26:00;99599.89;;;26.32
48894;BMP280;34710;35.798;139.446;2023-05-21T06:28:25;99610.85;;;25.88
48894;BMP280;34710;35.798;139.446;2023-05-21T06:30:51;99610.23;;;27.61
48894;BMP280;34710;35.798;139.446;2023-05-21T06:33:16;99612.55;;;27.65
48894;BMP280;34710;35.798;139.446;2023-05-21T06:35:41;99619.87;;;26.32
48894;BMP280;34710;35.798;139.446;2023-05-21T06:38:06;99619.12;;;26.78
48894;BMP280;34710;35.798;139.446;2023-05-21T06:40:31;99622.24;;;26.88
48894;BMP280;34710;35.798;139.446;2023-05-21T06:42:56;99613.47;;;27.35
48894;BMP280;34710;35.798;139.446;2023-05-21T06:45:22;99616.34;;;25.28
48894;BMP280;34710;35.798;139.446;2023-05-21T06:47:46;99614.14;;;26.10
48894;BMP280;34710;35.798;139.446;2023-05-21T06:50:11;99613.15;;;26.24
48894;BMP280;34710;35.798;139.446;2023-05-21T06:52:36;99608.28;;;26.48
48894;BMP280;34710;35.798;139.446;2023-05-21T06:55:02;99610.37;;;26.28
48894;BMP280;34710;35.798;139.446;2023-05-21T06:57:27;99611.11;;;25.31
48894;BMP280;34710;35.798;139.446;2023-05-21T06:59:52;99619.93;;;26.27
48894;BMP280;34710;35.798;139.446;2023-05-21T07:02:17;99620.74;;;25.10
48894;BMP280;34710;35.798;139.446;2023-05-21T07:04:42;99627.83;;;25.08
48894;BMP280;34710;35.798;139.446;2023-05-21T07:07:07;99626.93;;;25.45
48894;BMP280;34710;35.798;139.446;2023-05-21T07:09:32;99630.50;;;26.05
48894;BMP280;34710;35.798;139.446;2023-05-21T07:11:58;99629.91;;;24.81
48894;BMP280;34710;35.798;139.446;2023-05-21T07:14:24;99626.62;;;24.88
48894;BMP280;34710;35.798;139.446;2023-05-21T07:16:48;99622.75;;;24.46
48894;BMP280;34710;35.798;139.446;2023-05-21T07:19:14;99613.47;;;24.59
48894;BMP280;34710;35.798;139.446;2023-05-21T07:21:38;99613.28;;;23.69
48894;BMP280;34710;35.798;139.446;2023-05-21T07:24:04;99619.37;;;24.67
48894;BMP280;34710;35.798;139.446;2023-05-21T07:26:28;99627.73;;;24.53
48894;BMP280;34710;35.798;139.446;2023-05-21T07:28:54;99631.70;;;24.84
48894;BMP280;34710;35.798;139.446;2023-05-21T07:31:19;99637.72;;;24.46
48894;BMP280;34710;35.798;139.446;2023-05-21T07:33:45;99634.30;;;23.68
48894;BMP280;34710;35.798;139.446;2023-05-21T07:36:10;99635.03;;;24.15
48894;BMP280;34710;35.798;139.446;2023-05-21T07:38:36;99634.19;;;23.98
48894;BMP280;34710;35.798;139.446;2023-05-21T07:41:00;99629.11;;;25.25
48894;BMP280;34710;35.798;139.446;2023-05-21T07:43:25;99634.44;;;24.86
48894;BMP280;34710;35.798;139.446;2023-05-21T07:45:51;99629.62;;;25.23
48894;BMP280;34710;35.798;139.446;2023-05-21T07:48:15;99618.24;;;26.05
48894;BMP280;34710;35.798;139.446;2023-05-21T07:50:41;99615.65;;;25.52
48894;BMP280;34710;35.798;139.446;2023-05-21T07:53:06;99611.88;;;25.32
48894;BMP280;34710;35.798;139.446;2023-05-21T07:55:32;99612.94;;;24.59
48894;BMP280;34710;35.798;139.446;2023-05-21T07:57:56;99617.30;;;24.46
48894;BMP280;34710;35.798;139.446;2023-05-21T08:00:23;99617.10;;;25.11
48894;BMP280;34710;35.798;139.446;2023-05-21T08:02:49;99617.22;;;24.85
48894;BMP280;34710;35.798;139.446;2023-05-21T08:05:14;99605.68;;;24.49
48894;BMP280;34710;35.798;139.446;2023-05-21T08:07:38;99600.77;;;24.89
48894;BMP280;34710;35.798;139.446;2023-05-21T08:10:03;99602.87;;;24.36
48894;BMP280;34710;35.798;139.446;2023-05-21T08:12:27;99604.68;;;25.16
48894;BMP280;34710;35.798;139.446;2023-05-21T08:14:54;99608.39;;;25.19
48894;BMP280;34710;35.798;139.446;2023-05-21T08:17:18;99611.48;;;25.22
48894;BMP280;34710;35.798;139.446;2023-05-21T08:19:44;99610.60;;;25.08
48894;BMP280;34710;35.798;139.446;2023-05-21T08:22:10;99605.24;;;24.72
48894;BMP280;34710;35.798;139.446;2023-05-21T08:24:33;99602.41;;;23.72
48894;BMP280;34710;35.798;139.446;2023-05-21T08:26:59;99607.01;;;24.69
48894;BMP280;34710;35.798;139.446;2023-05-21T08:29:23;99607.63;;;24.48
48894;BMP280;34710;35.798;139.446;2023-05-21T08:31:49;99612.78;;;23.87
48894;BMP280;34710;35.798;139.446;2023-05-21T08:34:14;99609.37;;;24.19
48894;BMP280;34710;35.798;139.446;2023-05-21T08:36:43;99603.19;;;23.75
48894;BMP280;34710;35.798;139.446;2023-05-21T08:39:06;99599.90;;;23.79
48894;BMP280;34710;35.798;139.446;2023-05-21T08:41:31;99595.72;;;24.01
48894;BMP280;34710;35.798;139.446;2023-05-21T08:43:57;99595.52;;;23.76
48894;BMP280;34710;35.798;139.446;2023-05-21T08:46:24;99600.03;;;23.92
48894;BMP280;34710;35.798;139.446;2023-05-21T08:48:47;99596.05;;;23.77
48894;BMP280;34710;35.798;139.446;2023-05-21T08:51:12;99601.27;;;23.66
48894;BMP280;34710;35.798;139.446;2023-05-21T08:53:37;99611.93;;;25.04
48894;BMP280;34710;35.798;139.446;2023-05-21T08:56:03;99610.49;;;23.67
48894;BMP280;34710;35.798;139.446;2023-05-21T08:58:29;99613.20;;;22.52
48894;BMP280;34710;35.798;139.446;2023-05-21T09:00:55;99612.38;;;23.09
48894;BMP280;34710;35.798;139.446;2023-05-21T09:03:20;99611.70;;;24.35
48894;BMP280;34710;35.798;139.446;2023-05-21T09:05:45;99612.13;;;24.37
48894;BMP280;34710;35.798;139.446;2023-05-21T09:08:15;99613.95;;;23.73
48894;BMP280;34710;35.798;139.446;2023-05-21T09:10:38;99611.20;;;23.45
48894;BMP280;34710;35.798;139.446;2023-05-21T09:13:00;99616.97;;;23.23
48894;BMP280;34710;35.798;139.446;2023-05-21T09:15:26;99624.70;;;22.43
48894;BMP280;34710;35.798;139.446;2023-05-21T09:17:51;99624.21;;;23.29
48894;BMP280;34710;35.798;139.446;2023-05-21T09:20:16;99627.95;;;23.46
48894;BMP280;34710;35.798;139.446;2023-05-21T09:22:42;99630.95;;;23.14
48894;BMP280;34710;35.798;139.446;2023-05-21T09:25:09;99629.32;;;22.99
48894;BMP280;34710;35.798;139.446;2023-05-21T09:27:32;99626.94;;;22.71
48894;BMP280;34710;35.798;139.446;2023-05-21T09:29:59;99630.08;;;21.86
48894;BMP280;34710;35.798;139.446;2023-05-21T09:32:23;99634.21;;;22.09
48894;BMP280;34710;35.798;139.446;2023-05-21T09:34:50;99628.86;;;22.62
48894;BMP280;34710;35.798;139.446;2023-05-21T09:37:13;99632.39;;;23.17
48894;BMP280;34710;35.798;139.446;2023-05-21T09:39:40;99636.52;;;22.44
48894;BMP280;34710;35.798;139.446;2023-05-21T09:42:04;99639.90;;;21.94
48894;BMP280;34710;35.798;139.446;2023-05-21T09:44:29;99633.62;;;22.68
48894;BMP280;34710;35.798;139.446;2023-05-21T09:46:58;99630.93;;;22.36
48894;BMP280;34710;35.798;139.446;2023-05-21T09:49:25;99631.95;;;22.78
48894;BMP280;34710;35.798;139.446;2023-05-21T09:51:45;99636.87;;;22.23
48894;BMP280;34710;35.798;139.446;2023-05-21T09:54:11;99640.05;;;21.53
48894;BMP280;34710;35.798;139.446;2023-05-21T09:56:36;99643.37;;;21.55
48894;BMP280;34710;35.798;139.446;2023-05-21T09:59:02;99645.39;;;21.76
48894;BMP280;34710;35.798;139.446;2023-05-21T10:01:27;99643.64;;;21.57
48894;BMP280;34710;35.798;139.446;2023-05-21T10:03:55;99638.71;;;22.26
48894;BMP280;34710;35.798;139.446;2023-05-21T10:06:20;99647.29;;;21.29
48894;BMP280;34710;35.798;139.446;2023-05-21T10:08:47;99648.54;;;21.86
48894;BMP280;34710;35.798;139.446;2023-05-21T10:11:10;99652.77;;;20.92
48894;BMP280;34710;35.798;139.446;2023-05-21T10:13:35;99654.38;;;21.35
48894;BMP280;34710;35.798;139.446;2023-05-21T10:16:01;99650.67;;;21.94
48894;BMP280;34710;35.798;139.446;2023-05-21T10:18:24;99644.98;;;22.68
48894;BMP280;34710;35.798;139.446;2023-05-21T10:20:51;99641.90;;;22.49
48894;BMP280;34710;35.798;139.446;2023-05-21T10:23:17;99641.42;;;22.09
48894;BMP280;34710;35.798;139.446;2023-05-21T10:25:42;99636.33;;;23.19
48894;BMP280;34710;35.798;139.446;2023-05-21T10:28:07;99638.00;;;23.09
48894;BMP280;34710;35.798;139.446;2023-05-21T10:30:32;99641.49;;;22.70
48894;BMP280;34710;35.798;139.446;2023-05-21T10:32:57;99640.68;;;22.39
48894;BMP280;34710;35.798;139.446;2023-05-21T10:35:23;99641.78;;;22.10
48894;BMP280;34710;35.798;139.446;2023-05-21T10:37:50;99646.63;;;20.73
48894;BMP280;34710;35.798;139.446;2023-05-21T10:40:14;99651.25;;;20.82
48894;BMP280;34710;35.798;139.446;2023-05-21T10:42:50;99652.14;;;20.99
48894;BMP280;34710;35.798;139.446;2023-05-21T10:45:14;99648.50;;;22.19
48894;BMP280;34710;35.798;139.446;2023-05-21T10:55:00;99656.36;;;24.25
48894;BMP280;34710;35.798;139.446;2023-05-21T10:57:22;99662.45;;;23.84
48894;BMP280;34710;35.798;139.446;2023-05-21T10:59:42;99661.82;;;23.10
48894;BMP280;34710;35.798;139.446;2023-05-21T11:02:04;99651.61;;;23.59
48894;BMP280;34710;35.798;139.446;2023-05-21T11:04:30;99644.64;;;24.34
48894;BMP280;34710;35.798;139.446;2023-05-21T11:06:54;99638.96;;;23.11
48894;BMP280;34710;35.798;139.446;2023-05-21T11:09:21;99638.86;;;22.88
48894;BMP280;34710;35.798;139.446;2023-05-21T11:11:48;99640.69;;;23.22
48894;BMP280;34710;35.798;139.446;2023-05-21T11:14:26;99647.71;;;23.93
48894;BMP280;34710;35.798;139.446;2023-05-21T11:16:37;99647.37;;;23.12
48894;BMP280;34710;35.798;139.446;2023-05-21T11:19:02;99646.29;;;23.56
48894;BMP280;34710;35.798;139.446;2023-05-21T11:21:29;99651.09;;;23.45
48894;BMP280;34710;35.798;139.446;2023-05-21T11:23:52;99656.70;;;22.61
48894;BMP280;34710;35.798;139.446;2023-05-21T11:26:19;99661.88;;;22.47
48894;BMP280;34710;35.798;139.446;2023-05-21T11:28:43;99666.64;;;23.39
48894;BMP280;34710;35.798;139.446;2023-05-21T11:31:22;99672.83;;;22.67
48894;BMP280;34710;35.798;139.446;2023-05-21T11:33:34;99676.99;;;23.43
48894;BMP280;34710;35.798;139.446;2023-05-21T11:36:00;99675.17;;;23.27
48894;BMP280;34710;35.798;139.446;2023-05-21T11:38:27;99677.12;;;22.23
48894;BMP280;34710;35.798;139.446;2023-05-21T11:40:51;99684.01;;;21.55
48894;BMP280;34710;35.798;139.446;2023-05-21T11:43:17;99682.71;;;22.41
48894;BMP280;34710;35.798;139.446;2023-05-21T11:45:46;99679.09;;;22.17
48894;BMP280;34710;35.798;139.446;2023-05-21T11:48:07;99686.11;;;21.95
48894;BMP280;34710;35.798;139.446;2023-05-21T11:50:33;99685.41;;;23.55
48894;BMP280;34710;35.798;139.446;2023-05-21T11:52:57;99687.87;;;22.85
48894;BMP280;34710;35.798;139.446;2023-05-21T11:55:23;99693.03;;;23.53
48894;BMP280;34710;35.798;139.446;2023-05-21T11:57:50;99698.07;;;23.84
48894;BMP280;34710;35.798;139.446;2023-05-21T12:00:16;99698.95;;;23.91
48894;BMP280;34710;35.798;139.446;2023-05-21T12:02:43;99697.99;;;23.85
48894;BMP280;34710;35.798;139.446;2023-05-21T12:05:05;99700.47;;;23.20
48894;BMP280;34710;35.798;139.446;2023-05-21T12:07:31;99701.51;;;22.88
48894;BMP280;34710;35.798;139.446;2023-05-21T12:09:58;99703.47;;;23.11
48894;BMP280;34710;35.798;139.446;2023-05-21T12:12:24;99699.96;;;23.67
48894;BMP280;34710;35.798;139.446;2023-05-21T12:14:49;99696.15;;;23.86
48894;BMP280;34710;35.798;139.446;2023-05-21T12:17:14;99687.02;;;23.42
48894;BMP280;34710;35.798;139.446;2023-05-21T12:19:38;99686.95;;;21.86
48894;BMP280;34710;35.798;139.446;2023-05-21T12:22:04;99688.29;;;21.69
48894;BMP280;34710;35.798;139.446;2023-05-21T12:24:29;99692.90;;;22.16
48894;BMP280;34710;35.798;139.446;2023-05-21T12:26:54;99689.03;;;21.08
48894;BMP280;34710;35.798;139.446;2023-05-21T12:29:20;99682.26;;;20.71
48894;BMP280;34710;35.798;139.446;2023-05-21T12:31:49;99674.30;;;22.03
48894;BMP280;34710;35.798;139.446;2023-05-21T12:34:12;99673.23;;;22.24
48894;BMP280;34710;35.798;139.446;2023-05-21T12:36:36;99673.74;;;23.55
48894;BMP280;34710;35.798;139.446;2023-05-21T12:39:03;99674.00;;;21.84
48894;BMP280;34710;35.798;139.446;2023-05-21T12:41:29;99668.60;;;23.45
48894;BMP280;34710;35.798;139.446;2023-05-21T12:43:53;99670.08;;;23.84
48894;BMP280;34710;35.798;139.446;2023-05-21T12:46:18;99667.61;;;23.99
48894;BMP280;34710;35.798;139.446;2023-05-21T12:48:48;99658.26;;;24.10
48894;BMP280;34710;35.798;139.446;2023-05-21T12:51:08;99652.83;;;23.93
48894;BMP280;34710;35.798;139.446;2023-05-21T12:53:40;99652.77;;;23.74
48894;BMP280;34710;35.798;139.446;2023-05-21T12:56:08;99652.82;;;23.94
48894;BMP280;34710;35.798;139.446;2023-05-21T12:58:24;99650.24;;;24.19
48894;BMP280;34710;35.798;139.446;2023-05-21T13:00:50;99648.67;;;24.06
48894;BMP280;34710;35.798;139.446;2023-05-21T13:03:15;99644.17;;;23.96
48894;BMP280;34710;35.798;139.446;2023-05-21T13:05:41;99640.21;;;24.00
48894;BMP280;34710;35.798;139.446;2023-05-21T13:08:06;99637.06;;;24.08
48894;BMP280;34710;35.798;139.446;2023-05-21T13:10:33;99629.83;;;23.78
48894;BMP280;34710;35.798;139.446;2023-05-21T13:12:58;99624.44;;;24.06
48894;BMP280;34710;35.798;139.446;2023-05-21T13:15:21;99623.44;;;22.04
48894;BMP280;34710;35.798;139.446;2023-05-21T13:17:47;99625.37;;;22.55
48894;BMP280;34710;35.798;139.446;2023-05-21T13:20:18;99618.60;;;22.69
48894;BMP280;34710;35.798;139.446;2023-05-21T13:22:39;99609.90;;;22.59
48894;BMP280;34710;35.798;139.446;2023-05-21T13:25:06;99603.94;;;22.88
48894;BMP280;34710;35.798;139.446;2023-05-21T13:27:30;99600.68;;;22.61
48894;BMP280;34710;35.798;139.446;2023-05-21T13:29:55;99598.03;;;20.77
48894;BMP280;34710;35.798;139.446;2023-05-21T13:32:23;99593.83;;;21.01
48894;BMP280;34710;35.798;139.446;2023-05-21T13:34:46;99592.45;;;22.13
48894;BMP280;34710;35.798;139.446;2023-05-21T13:37:11;99594.28;;;22.50
48894;BMP280;34710;35.798;139.446;2023-05-21T13:39:38;99590.70;;;23.03